Time;durP1;ratioP1;P1;durP2;ratioP2;P2;SDS_P1;SDS_P2;PMS_P1;PMS_P2;Temp;Humidity;BMP_temperature;BMP_pressure;BME280_temperature;BME280_humidity;BME280_pressure;Samples;Min_cycle;Max_cycle;Signal;HPM_P1;HPM_P2
2020/12/31 00:01:18;;;;;;;8.10;4.75;;;4.50;85.30;;;;;;5021692;28;20030;-62
2020/12/31 00:03:43;;;;;;;10.23;5.20;;;4.50;85.40;;;;;;5021721;28;20488;-62
2020/12/31 00:06:09;;;;;;;8.85;5.32;;;4.50;85.10;;;;;;5021534;28;20029;-62
2020/12/31 00:08:34;;;;;;;8.40;4.70;;;4.60;85.30;;;;;;5022340;28;20065;-62
2020/12/31 00:11:00;;;;;;;5.57;4.05;;;4.60;84.80;;;;;;5021981;28;20041;-62
2020/12/31 00:13:26;;;;;;;6.78;4.38;;;4.60;84.80;;;;;;5021802;28;20144;-62
2020/12/31 00:15:51;;;;;;;8.85;4.88;;;4.70;84.40;;;;;;5022331;28;20029;-62
2020/12/31 00:18:17;;;;;;;6.90;4.80;;;4.60;84.50;;;;;;5021736;28;20045;-62
2020/12/31 00:20:43;;;;;;;7.97;5.32;;;4.60;84.90;;;;;;5022884;28;20026;-63
2020/12/31 00:23:08;;;;;;;6.85;4.88;;;4.60;84.60;;;;;;5021880;28;20662;-61
2020/12/31 00:25:45;;;;;;;7.90;4.55;;;4.70;84.40;;;;;;5004196;28;20021;-63
2020/12/31 00:28:10;;;;;;;;;;;4.70;84.50;;;;;;5004905;28;20080;-62
2020/12/31 00:30:36;;;;;;;8.73;5.17;;;4.70;84.00;;;;;;5022463;28;19956;-62
2020/12/31 00:33:02;;;;;;;7.45;5.05;;;4.60;84.30;;;;;;5021129;28;20030;-62
2020/12/31 00:35:28;;;;;;;8.45;4.38;;;4.70;84.60;;;;;;5017714;28;20103;-61
2020/12/31 00:37:54;;;;;;;6.40;4.30;;;4.70;84.60;;;;;;5021624;28;20037;-62
2020/12/31 00:40:19;;;;;;;7.30;4.55;;;4.70;84.00;;;;;;5021015;28;20557;-62
2020/12/31 00:42:45;;;;;;;7.40;4.45;;;4.80;84.00;;;;;;5003282;28;20041;-62
2020/12/31 00:45:11;;;;;;;8.27;4.72;;;4.80;84.00;;;;;;5021172;28;20076;-62
2020/12/31 00:47:37;;;;;;;8.15;4.95;;;4.90;83.60;;;;;;4999818;28;20037;-62
2020/12/31 00:50:03;;;;;;;6.45;4.40;;;4.90;83.10;;;;;;5019248;28;20043;-62
2020/12/31 00:52:29;;;;;;;7.40;5.07;;;4.90;83.30;;;;;;5021364;28;20033;-62
2020/12/31 00:54:54;;;;;;;7.70;5.32;;;4.90;83.50;;;;;;5021103;28;20029;-62
2020/12/31 00:57:20;;;;;;;9.02;5.43;;;5.00;83.30;;;;;;5003677;28;20056;-62
2020/12/31 00:59:46;;;;;;;10.02;5.30;;;4.80;83.30;;;;;;4984774;28;20033;-62
2020/12/31 01:02:12;;;;;;;8.25;5.45;;;4.80;84.00;;;;;;5003411;28;20037;-62
2020/12/31 01:04:38;;;;;;;9.25;4.90;;;4.70;84.70;;;;;;5022066;28;20162;-62
2020/12/31 01:07:03;;;;;;;8.45;4.95;;;4.60;85.00;;;;;;5003468;28;20095;-62
2020/12/31 01:09:29;;;;;;;7.32;4.90;;;4.70;85.40;;;;;;5000286;28;20034;-62
2020/12/31 01:11:55;;;;;;;7.50;5.20;;;4.70;85.00;;;;;;5020241;28;20239;-62
2020/12/31 01:14:22;;;;;;;8.75;5.05;;;4.60;84.70;;;;;;5021321;28;20059;-62
2020/12/31 01:16:49;;;;;;;7.32;5.03;;;4.70;84.90;;;;;;5020996;28;20754;-62
2020/12/31 01:19:15;;;;;;;8.40;4.88;;;4.70;84.80;;;;;;5021199;28;20048;-62
2020/12/31 01:21:45;;;;;;;8.60;5.20;;;4.70;84.50;;;;;;5021353;28;20061;-62
2020/12/31 01:24:12;;;;;;;7.30;5.22;;;4.70;84.60;;;;;;5020366;28;20068;-62
2020/12/31 01:26:38;;;;;;;11.45;5.32;;;4.70;84.70;;;;;;5021198;28;20038;-62
2020/12/31 01:29:04;;;;;;;9.05;5.43;;;4.70;84.70;;;;;;5021078;28;20045;-62
2020/12/31 01:31:31;;;;;;;8.05;5.32;;;4.70;84.70;;;;;;5020764;28;20890;-62
2020/12/31 01:33:57;;;;;;;8.05;5.20;;;4.80;84.60;;;;;;5020758;28;20041;-62
2020/12/31 01:36:23;;;;;;;10.32;5.47;;;4.80;84.50;;;;;;5020349;28;20098;-62
2020/12/31 01:38:48;;;;;;;8.23;5.10;;;4.80;84.40;;;;;;5020020;28;20029;-62
2020/12/31 01:41:20;;;;;;;6.40;4.45;;;4.80;83.80;;;;;;5020477;28;20616;-62
2020/12/31 01:44:00;;;;;;;8.70;5.25;;;4.80;83.80;;;;;;5020678;28;20037;-62
2020/12/31 01:46:26;;;;;;;9.18;5.43;;;4.70;84.20;;;;;;5019853;28;20461;-62
2020/12/31 01:48:52;;;;;;;8.45;4.97;;;4.80;83.90;;;;;;5020646;28;20039;-62
2020/12/31 01:51:17;;;;;;;10.25;5.13;;;4.70;84.30;;;;;;5018225;28;20044;-62
2020/12/31 01:53:44;;;;;;;6.68;4.50;;;4.60;84.60;;;;;;5001529;28;20026;-62
2020/12/31 01:56:11;;;;;;;7.38;5.15;;;4.60;84.50;;;;;;5019816;28;20063;-62
2020/12/31 01:58:37;;;;;;;7.70;5.10;;;4.60;84.90;;;;;;5020348;28;20048;-62
2020/12/31 02:01:03;;;;;;;8.07;5.20;;;4.60;84.90;;;;;;5020108;28;20026;-62
2020/12/31 02:03:28;;;;;;;7.95;4.55;;;4.70;84.50;;;;;;5020640;28;20033;-63
2020/12/31 02:05:54;;;;;;;8.35;5.10;;;4.90;83.70;;;;;;5019648;28;20580;-62
2020/12/31 02:08:19;;;;;;;8.98;5.25;;;4.80;83.40;;;;;;5019928;28;20037;-62
2020/12/31 02:10:47;;;;;;;7.57;4.57;;;4.90;83.50;;;;;;5020048;28;20041;-62
2020/12/31 02:13:13;;;;;;;8.13;5.00;;;5.00;82.80;;;;;;5019823;28;20037;-62
2020/12/31 02:15:38;;;;;;;8.93;5.07;;;5.00;82.50;;;;;;5019201;28;20905;-62
2020/12/31 02:18:04;;;;;;;9.98;6.05;;;4.90;82.80;;;;;;5019952;28;20440;-62
2020/12/31 02:20:30;;;;;;;7.55;4.85;;;4.80;82.80;;;;;;5019465;28;20033;-62
2020/12/31 02:22:55;;;;;;;7.20;5.05;;;4.80;83.00;;;;;;5019462;28;20040;-62
2020/12/31 02:25:21;;;;;;;9.63;4.82;;;4.80;83.30;;;;;;5019169;28;20033;-62
2020/12/31 02:27:47;;;;;;;9.60;5.25;;;4.80;83.00;;;;;;5019461;28;20064;-62
2020/12/31 02:30:12;;;;;;;9.07;5.68;;;4.80;82.60;;;;;;5000812;28;20040;-62
2020/12/31 02:32:38;;;;;;;7.43;5.05;;;4.80;83.00;;;;;;5000240;28;20504;-62
2020/12/31 02:35:04;;;;;;;7.72;5.13;;;4.70;83.30;;;;;;5018611;28;20033;-62
2020/12/31 02:37:29;;;;;;;7.05;5.00;;;4.60;83.70;;;;;;5019043;28;20055;-62
2020/12/31 02:39:55;;;;;;;7.30;5.50;;;4.60;83.80;;;;;;5019582;28;20561;-62
2020/12/31 02:42:21;;;;;;;8.10;5.25;;;4.60;84.10;;;;;;5019641;28;20033;-62
2020/12/31 02:44:46;;;;;;;7.72;5.07;;;4.60;83.90;;;;;;5019238;28;20489;-62
2020/12/31 02:47:12;;;;;;;9.45;5.38;;;4.60;83.80;;;;;;5019030;28;20029;-63
2020/12/31 02:49:38;;;;;;;7.97;5.55;;;4.70;83.80;;;;;;5019410;28;20569;-62
2020/12/31 02:52:03;;;;;;;8.48;5.00;;;4.70;83.50;;;;;;5019220;28;20127;-62
2020/12/31 02:54:29;;;;;;;8.35;5.25;;;4.80;83.20;;;;;;5019893;28;20965;-62
2020/12/31 02:56:54;;;;;;;8.98;5.53;;;4.80;83.00;;;;;;5018951;28;20032;-62
2020/12/31 02:59:20;;;;;;;7.13;5.05;;;4.80;83.10;;;;;;5018765;28;20083;-62
2020/12/31 03:01:45;;;;;;;10.07;5.50;;;4.70;83.30;;;;;;5018915;28;20099;-62
2020/12/31 03:04:11;;;;;;;8.65;5.80;;;4.80;83.50;;;;;;5018739;28;20048;-63
2020/12/31 03:06:37;;;;;;;10.23;6.35;;;4.80;83.30;;;;;;5018938;28;20068;-62
2020/12/31 03:09:02;;;;;;;9.15;5.75;;;4.90;83.10;;;;;;5002474;28;20048;-63
2020/12/31 03:11:28;;;;;;;8.20;5.25;;;4.80;83.10;;;;;;5023182;28;20037;-62
2020/12/31 03:13:54;;;;;;;8.88;5.60;;;4.80;83.10;;;;;;5023096;28;20033;-62
2020/12/31 03:16:20;;;;;;;9.07;5.45;;;4.80;83.10;;;;;;5022568;28;20029;-62
2020/12/31 03:18:46;;;;;;;8.07;5.13;;;4.80;83.20;;;;;;5022974;28;20042;-62
2020/12/31 03:21:12;;;;;;;8.52;4.80;;;4.80;83.30;;;;;;5023072;28;20107;-62
2020/12/31 03:23:38;;;;;;;9.65;4.82;;;4.80;83.40;;;;;;5005122;28;20151;-62
2020/12/31 03:26:05;;;;;;;10.18;5.40;;;4.90;83.40;;;;;;5022322;28;20656;-62
2020/12/31 03:28:30;;;;;;;10.60;5.28;;;4.90;83.40;;;;;;5022987;28;20034;-62
2020/12/31 03:30:56;;;;;;;8.20;5.00;;;4.90;83.10;;;;;;5022452;28;20041;-62
2020/12/31 03:33:22;;;;;;;8.60;5.10;;;4.90;83.00;;;;;;5022625;28;20029;-62
2020/12/31 03:35:49;;;;;;;5.60;4.35;;;5.00;83.00;;;;;;5022359;28;20116;-62
2020/12/31 03:38:18;;;;;;;9.00;4.63;;;5.00;82.60;;;;;;5020630;28;20025;-62
2020/12/31 03:40:44;;;;;;;7.97;5.03;;;5.00;82.50;;;;;;5023057;28;20151;-62
2020/12/31 03:43:10;;;;;;;8.35;5.18;;;5.00;82.20;;;;;;5022575;28;20120;-62
2020/12/31 03:45:37;;;;;;;8.35;5.13;;;5.00;82.80;;;;;;5022047;28;20092;-62
2020/12/31 03:48:04;;;;;;;7.88;5.15;;;5.00;82.90;;;;;;5022231;28;20259;-62
2020/12/31 03:50:30;;;;;;;9.23;5.90;;;4.90;83.10;;;;;;5022748;28;20819;-62
2020/12/31 03:52:55;;;;;;;9.10;5.47;;;4.90;83.40;;;;;;5021949;28;20037;-62
2020/12/31 03:55:21;;;;;;;6.53;4.85;;;4.90;83.20;;;;;;5021650;28;20037;-62
2020/12/31 03:57:47;;;;;;;7.55;5.05;;;4.90;83.30;;;;;;5004014;28;20658;-62
2020/12/31 04:00:13;;;;;;;9.43;5.57;;;4.80;83.40;;;;;;5020953;28;20028;-62
2020/12/31 04:02:39;;;;;;;7.97;4.70;;;4.70;83.40;;;;;;5021813;28;20453;-62
2020/12/31 04:05:05;;;;;;;9.02;4.60;;;4.70;84.00;;;;;;5021341;28;20037;-62
2020/12/31 04:07:31;;;;;;;10.43;5.50;;;4.60;84.20;;;;;;5021736;28;20037;-62
2020/12/31 04:09:56;;;;;;;7.15;4.75;;;4.70;84.30;;;;;;5021567;28;20200;-62
2020/12/31 04:12:22;;;;;;;8.07;5.35;;;4.70;84.10;;;;;;5022644;28;20120;-62
2020/12/31 04:14:48;;;;;;;8.68;4.95;;;4.80;83.70;;;;;;5021491;28;20037;-62
2020/12/31 04:17:13;;;;;;;7.70;4.95;;;4.70;83.80;;;;;;5021501;28;20044;-62
2020/12/31 04:19:40;;;;;;;8.85;5.15;;;4.80;83.70;;;;;;5021174;28;20122;-62
2020/12/31 04:22:07;;;;;;;9.25;5.35;;;4.80;83.60;;;;;;5003324;28;20037;-62
2020/12/31 04:24:33;;;;;;;7.88;5.25;;;4.80;83.60;;;;;;5022036;28;20034;-63
2020/12/31 04:26:58;;;;;;;7.05;4.90;;;4.80;83.50;;;;;;5019629;28;20040;-62
2020/12/31 04:29:24;;;;;;;7.40;4.45;;;4.70;83.50;;;;;;5021749;28;20057;-63
2020/12/31 04:31:50;;;;;;;8.15;4.68;;;4.70;83.70;;;;;;5021745;28;20039;-62
2020/12/31 04:34:15;;;;;;;6.85;4.90;;;4.70;83.60;;;;;;5022420;28;20489;-62
2020/12/31 04:36:41;;;;;;;8.80;4.80;;;4.60;83.90;;;;;;5021762;28;20044;-62
2020/12/31 04:39:07;;;;;;;9.27;5.20;;;4.60;83.90;;;;;;5021694;28;20049;-63
2020/12/31 04:41:33;;;;;;;6.93;4.70;;;4.60;83.50;;;;;;5022309;28;20033;-62
2020/12/31 04:44:01;;;;;;;7.00;4.50;;;4.60;83.80;;;;;;5004160;28;20045;-62
2020/12/31 04:46:28;;;;;;;7.10;5.03;;;4.60;83.50;;;;;;5021880;28;20037;-63
2020/12/31 04:49:24;;;;;;;8.30;4.53;;;4.50;83.60;;;;;;5021658;28;20110;-62
2020/12/31 04:51:53;;;;;;;8.40;4.95;;;4.50;84.30;;;;;;5021586;28;20037;-63
2020/12/31 04:54:19;;;;;;;6.20;4.13;;;4.50;83.60;;;;;;5021187;28;20116;-62
2020/12/31 04:56:46;;;;;;;8.98;5.30;;;4.50;83.50;;;;;;5021653;28;20040;-62
2020/12/31 04:59:12;;;;;;;5.63;4.07;;;4.40;83.20;;;;;;5020616;28;20037;-62
2020/12/31 05:01:44;;;;;;;7.05;4.80;;;4.30;83.20;;;;;;5021751;28;20025;-63
2020/12/31 05:04:10;;;;;;;7.15;4.38;;;4.30;83.20;;;;;;5021238;28;20037;-63
2020/12/31 05:06:37;;;;;;;6.32;4.25;;;4.20;83.40;;;;;;5020338;28;20034;-65
2020/12/31 05:09:17;;;;;;;7.18;4.32;;;4.00;84.10;;;;;;5021469;28;20150;-63
2020/12/31 05:11:51;;;;;;;9.45;4.60;;;3.90;84.50;;;;;;5020830;28;20041;-62
2020/12/31 05:14:36;;;;;;;7.18;4.78;;;3.80;84.90;;;;;;5020943;28;20152;-62
2020/12/31 05:17:16;;;;;;;7.40;4.53;;;3.70;85.20;;;;;;5020978;28;20037;-61
2020/12/31 05:19:42;;;;;;;10.98;4.97;;;3.70;85.30;;;;;;5021297;28;20041;-62
2020/12/31 05:22:18;;;;;;;8.45;4.78;;;3.60;85.40;;;;;;5003186;28;20094;-62
2020/12/31 05:24:46;;;;;;;6.43;4.53;;;3.50;86.50;;;;;;5021894;28;20116;-62
2020/12/31 05:27:23;;;;;;;8.35;5.18;;;3.50;85.60;;;;;;5003131;28;20565;-62
2020/12/31 05:30:07;;;;;;;7.63;4.45;;;3.40;85.90;;;;;;5020934;28;20029;-62
2020/12/31 05:32:38;;;;;;;7.30;4.60;;;3.40;86.10;;;;;;5020076;28;20893;-62
2020/12/31 05:35:30;;;;;;;6.82;4.40;;;3.30;86.80;;;;;;5020541;28;20057;-64
2020/12/31 05:37:55;;;;;;;7.60;4.47;;;3.30;86.90;;;;;;5017159;28;20048;-63
2020/12/31 05:40:21;;;;;;;9.20;5.15;;;3.30;86.50;;;;;;5020803;28;20037;-66
2020/12/31 05:42:47;;;;;;;7.68;5.18;;;3.30;86.70;;;;;;5020013;28;20137;-62
2020/12/31 05:45:17;;;;;;;8.40;5.10;;;3.30;86.60;;;;;;5020362;28;20033;-62
2020/12/31 05:47:53;;;;;;;8.50;5.32;;;3.40;86.50;;;;;;5021036;28;20041;-62
2020/12/31 05:50:24;;;;;;;8.32;4.93;;;3.40;86.30;;;;;;5020262;28;20037;-62
2020/12/31 05:52:51;;;;;;;9.27;5.57;;;3.40;86.30;;;;;;5021332;28;20037;-62
2020/12/31 05:55:21;;;;;;;10.70;5.43;;;3.40;86.60;;;;;;5020109;28;20037;-62
2020/12/31 05:57:48;;;;;;;7.85;4.53;;;3.40;85.60;;;;;;5020359;28;20080;-62
2020/12/31 06:00:16;;;;;;;8.73;5.03;;;3.20;85.90;;;;;;5002183;28;20072;-63
2020/12/31 06:02:44;;;;;;;9.32;5.32;;;3.10;86.40;;;;;;5020823;28;20071;-62
2020/12/31 06:05:14;;;;;;;9.15;5.47;;;3.10;86.60;;;;;;5019863;28;20026;-63
2020/12/31 06:07:52;;;;;;;8.10;4.63;;;3.00;86.50;;;;;;5002440;28;20034;-62
2020/12/31 06:10:21;;;;;;;8.45;5.22;;;2.90;87.30;;;;;;5019702;28;20711;-63
2020/12/31 06:12:52;;;;;;;9.27;5.82;;;2.80;87.70;;;;;;5018725;28;20061;-62
2020/12/31 06:15:29;;;;;;;8.40;5.25;;;2.80;87.50;;;;;;5019463;28;20037;-62
2020/12/31 06:17:56;;;;;;;9.60;4.90;;;2.80;87.40;;;;;;5019411;28;20052;-62
2020/12/31 06:20:24;;;;;;;10.88;5.38;;;2.70;87.70;;;;;;5018163;28;20059;-62
2020/12/31 06:23:06;;;;;;;8.82;4.82;;;2.80;88.10;;;;;;5018993;28;20060;-60
2020/12/31 06:25:33;;;;;;;10.13;5.95;;;2.70;88.10;;;;;;5014021;28;20481;-62
2020/12/31 06:28:10;;;;;;;7.82;4.72;;;2.60;88.20;;;;;;5018258;28;20033;-62
2020/12/31 06:30:37;;;;;;;9.77;5.65;;;2.60;88.40;;;;;;5016986;28;20045;-62
2020/12/31 06:33:26;;;;;;;10.60;5.88;;;2.60;88.20;;;;;;5018330;28;20103;-62
2020/12/31 06:35:58;;;;;;;10.43;5.22;;;2.60;88.30;;;;;;5000359;28;20049;-63
2020/12/31 06:38:35;;;;;;;9.98;5.60;;;2.60;88.20;;;;;;5019160;28;20033;-63
2020/12/31 06:41:02;;;;;;;11.00;5.93;;;2.50;88.40;;;;;;5018672;28;20986;-63
2020/12/31 06:43:38;;;;;;;12.60;6.68;;;2.50;88.50;;;;;;4995601;28;20041;-62
2020/12/31 06:46:22;;;;;;;9.45;5.40;;;2.50;88.40;;;;;;5018675;28;20033;-62
2020/12/31 06:48:52;;;;;;;9.85;5.72;;;2.60;88.10;;;;;;5018700;28;20458;-62
2020/12/31 06:51:25;;;;;;;10.10;6.03;;;2.50;88.40;;;;;;5018710;28;20482;-62
2020/12/31 06:53:51;;;;;;;9.02;4.93;;;2.40;88.80;;;;;;5001326;28;20040;-62
2020/12/31 06:56:50;;;;;;;10.57;6.22;;;2.40;89.10;;;;;;5018052;28;20696;-62
2020/12/31 06:59:35;;;;;;;8.27;5.53;;;2.50;88.80;;;;;;5019078;28;20045;-63
2020/12/31 07:02:14;;;;;;;10.23;6.03;;;2.50;88.50;;;;;;5000359;28;20130;-62
2020/12/31 07:04:40;;;;;;;9.15;5.70;;;2.60;88.20;;;;;;5015267;28;20025;-62
2020/12/31 07:07:21;;;;;;;9.07;5.25;;;2.60;88.10;;;;;;5018412;28;20500;-63
2020/12/31 07:09:56;;;;;;;9.40;5.72;;;2.60;88.00;;;;;;5019163;28;20033;-69
2020/12/31 07:12:45;;;;;;;10.48;6.03;;;2.60;87.90;;;;;;5017988;28;20034;-63
2020/12/31 07:15:15;;;;;;;9.75;5.85;;;2.60;88.10;;;;;;5016475;28;20087;-63
2020/12/31 07:17:45;;;;;;;9.05;5.18;;;2.60;88.00;;;;;;5018803;28;20052;-63
2020/12/31 07:20:16;;;;;;;11.48;6.30;;;2.70;87.60;;;;;;5018791;28;20044;-63
2020/12/31 07:22:43;;;;;;;9.85;6.00;;;2.80;87.00;;;;;;5018434;28;20018;-63
2020/12/31 07:25:13;;;;;;;10.43;5.93;;;2.90;86.90;;;;;;5018485;28;20038;-63
2020/12/31 07:27:43;;;;;;;9.18;6.03;;;2.90;86.60;;;;;;5016702;28;20647;-63
2020/12/31 07:30:21;;;;;;;12.18;6.32;;;3.00;86.40;;;;;;5015472;28;20033;-63
2020/12/31 07:33:00;;;;;;;10.90;5.97;;;3.10;86.00;;;;;;5018248;28;20026;-64
2020/12/31 07:35:33;;;;;;;10.27;6.68;;;3.20;85.90;;;;;;5017755;28;20136;-64
2020/12/31 07:38:14;;;;;;;11.52;6.63;;;3.20;85.70;;;;;;5018756;28;20376;-70
2020/12/31 07:40:47;;;;;;;11.30;6.88;;;3.40;85.00;;;;;;5014483;28;20034;-62
2020/12/31 07:43:14;;;;;;;11.43;6.85;;;3.50;84.40;;;;;;5016268;28;20041;-64
2020/12/31 07:45:45;;;;;;;10.65;6.32;;;3.60;84.40;;;;;;5000181;28;20034;-63
2020/12/31 07:48:11;;;;;;;9.20;6.15;;;3.70;83.10;;;;;;5018474;28;20671;-65
2020/12/31 07:50:36;;;;;;;11.65;6.13;;;3.70;83.00;;;;;;5016917;28;20086;-63
2020/12/31 07:53:02;;;;;;;9.60;6.03;;;3.80;82.70;;;;;;5018643;28;20823;-64
2020/12/31 07:55:28;;;;;;;9.07;5.60;;;3.90;82.50;;;;;;5014145;28;20124;-63
2020/12/31 07:57:54;;;;;;;10.98;5.85;;;3.90;83.00;;;;;;5004150;28;20037;-63
2020/12/31 08:00:21;;;;;;;7.70;5.38;;;4.00;82.10;;;;;;5021828;28;20440;-64
2020/12/31 08:02:47;;;;;;;10.68;5.80;;;4.00;81.50;;;;;;5021457;28;20075;-63
2020/12/31 08:05:14;;;;;;;10.73;5.75;;;4.00;81.50;;;;;;5021763;28;20112;-63
2020/12/31 08:07:41;;;;;;;15.98;8.50;;;4.00;81.50;;;;;;5021933;28;20084;-63
2020/12/31 08:10:08;;;;;;;9.52;5.45;;;4.00;81.90;;;;;;5004001;28;20071;-63
2020/12/31 08:12:35;;;;;;;10.25;5.68;;;4.10;81.70;;;;;;5018911;28;20036;-63
2020/12/31 08:15:01;;;;;;;14.27;5.03;;;4.20;81.10;;;;;;5020708;28;20030;-63
2020/12/31 08:17:26;;;;;;;8.25;5.57;;;4.30;81.00;;;;;;5021134;28;20029;-64
2020/12/31 08:19:52;;;;;;;8.50;5.53;;;4.30;80.50;;;;;;5021243;28;20659;-64
2020/12/31 08:22:40;;;;;;;7.75;5.13;;;4.40;80.90;;;;;;5020286;28;20072;-62
2020/12/31 08:25:14;;;;;;;9.32;5.25;;;4.50;79.40;;;;;;5020139;28;20061;-66
2020/12/31 08:27:41;;;;;;;9.43;5.13;;;4.60;79.20;;;;;;5020777;28;20052;-61
2020/12/31 08:30:12;;;;;;;10.05;5.40;;;4.50;78.90;;;;;;5017889;28;20578;-65
2020/12/31 08:32:49;;;;;;;7.55;4.60;;;4.60;79.00;;;;;;5021103;28;20037;-62
2020/12/31 08:35:22;;;;;;;7.40;5.03;;;4.60;79.30;;;;;;5019822;28;20033;-62
2020/12/31 08:38:12;;;;;;;8.23;4.80;;;4.60;78.00;;;;;;5020867;28;20045;-62
2020/12/31 08:40:43;;;;;;;8.38;5.57;;;4.70;78.40;;;;;;5016605;28;20038;-62
2020/12/31 08:43:36;;;;;;;9.60;5.00;;;4.60;78.00;;;;;;5021383;28;20029;-62
2020/12/31 08:46:04;;;;;;;7.03;4.68;;;4.60;78.20;;;;;;5019727;28;20045;-62
2020/12/31 08:48:30;;;;;;;7.35;4.97;;;4.70;78.10;;;;;;5020744;28;20060;-63
2020/12/31 08:51:13;;;;;;;6.88;5.05;;;4.70;78.30;;;;;;5021084;28;20037;-62
2020/12/31 08:54:01;;;;;;;7.40;4.40;;;4.70;77.80;;;;;;5021516;28;20034;-61
2020/12/31 08:56:31;;;;;;;6.75;4.68;;;4.80;78.10;;;;;;5020547;28;20095;-62
2020/12/31 08:59:10;;;;;;;6.85;4.65;;;4.80;77.80;;;;;;5021667;28;20033;-62
2020/12/31 09:01:36;;;;;;;6.03;4.20;;;4.90;77.10;;;;;;5017277;28;20030;-62
2020/12/31 09:04:20;;;;;;;5.90;4.32;;;5.00;77.20;;;;;;5003285;28;20030;-63
2020/12/31 09:06:47;;;;;;;6.78;4.70;;;5.10;77.00;;;;;;5019974;28;20556;-62
2020/12/31 09:09:21;;;;;;;5.88;4.30;;;5.10;76.70;;;;;;5021790;28;20289;-62
2020/12/31 09:12:08;;;;;;;5.57;4.25;;;5.10;76.40;;;;;;5021175;28;20037;-62
2020/12/31 09:14:36;;;;;;;7.78;4.47;;;5.20;76.20;;;;;;5021581;28;20068;-62
2020/12/31 09:17:25;;;;;;;7.45;4.25;;;5.20;75.60;;;;;;5020526;28;20111;-62
2020/12/31 09:19:52;;;;;;;8.38;4.60;;;5.10;75.60;;;;;;5020943;28;20087;-62
2020/12/31 09:22:19;;;;;;;6.35;4.57;;;5.10;76.00;;;;;;5021165;28;20936;-63
2020/12/31 09:24:44;;;;;;;6.10;4.10;;;5.10;76.20;;;;;;5002047;28;20133;-63
2020/12/31 09:27:10;;;;;;;5.88;4.30;;;5.10;76.00;;;;;;5020343;28;20075;-62
2020/12/31 09:29:36;;;;;;;6.35;3.90;;;5.30;76.10;;;;;;5014654;28;20025;-63
2020/12/31 09:32:02;;;;;;;6.63;4.20;;;5.30;75.00;;;;;;5015970;28;20606;-63
2020/12/31 09:34:27;;;;;;;6.13;4.18;;;5.20;75.20;;;;;;5019122;28;20493;-62
2020/12/31 09:37:00;;;;;;;6.90;4.15;;;5.20;75.60;;;;;;5018861;28;20092;-63
2020/12/31 09:39:26;;;;;;;5.80;3.60;;;5.20;75.70;;;;;;5018662;28;20041;-63
2020/12/31 09:41:52;;;;;;;5.00;3.50;;;5.40;75.60;;;;;;5019794;28;20481;-62
2020/12/31 09:44:18;;;;;;;5.43;4.22;;;5.50;74.90;;;;;;5020039;28;20065;-63
2020/12/31 09:46:44;;;;;;;7.75;4.15;;;5.60;73.90;;;;;;5019252;28;20154;-63
2020/12/31 09:49:09;;;;;;;7.25;3.85;;;5.70;73.80;;;;;;5020035;28;20037;-62
2020/12/31 09:51:36;;;;;;;6.55;3.78;;;5.70;72.80;;;;;;5020096;28;20033;-64
2020/12/31 09:54:01;;;;;;;9.15;4.13;;;5.80;72.90;;;;;;5020018;28;20033;-62
2020/12/31 09:56:30;;;;;;;5.80;3.70;;;5.80;72.90;;;;;;5019416;28;20492;-62
2020/12/31 09:58:59;;;;;;;5.07;3.67;;;5.80;72.50;;;;;;5019691;28;20037;-63
2020/12/31 10:01:27;;;;;;;6.85;3.88;;;6.00;72.60;;;;;;5019127;28;20636;-64
2020/12/31 10:03:53;;;;;;;6.22;4.22;;;6.00;71.80;;;;;;5020162;28;20917;-63
2020/12/31 10:06:19;;;;;;;5.65;3.70;;;6.20;71.30;;;;;;5019034;28;20049;-64
2020/12/31 10:08:45;;;;;;;5.63;3.80;;;6.20;70.20;;;;;;5001736;28;20041;-63
2020/12/31 10:11:10;;;;;;;5.80;3.53;;;6.30;70.80;;;;;;5019090;28;20187;-63
2020/12/31 10:13:36;;;;;;;5.72;3.53;;;6.30;69.80;;;;;;5019596;28;20033;-61
2020/12/31 10:16:03;;;;;;;6.85;3.38;;;6.40;69.40;;;;;;5018890;28;20579;-63
2020/12/31 10:18:29;;;;;;;5.35;3.88;;;6.50;69.50;;;;;;5013654;28;20045;-63
2020/12/31 10:20:55;;;;;;;3.75;3.08;;;6.60;68.90;;;;;;5019665;28;20087;-63
2020/12/31 10:23:21;;;;;;;5.25;3.63;;;6.70;69.10;;;;;;5019411;28;20041;-62
2020/12/31 10:25:50;;;;;;;6.47;3.67;;;6.70;68.50;;;;;;5001234;28;20029;-61
2020/12/31 10:28:18;;;;;;;4.80;3.72;;;6.80;68.20;;;;;;5020648;28;20033;-71
2020/12/31 10:30:44;;;;;;;4.72;3.28;;;6.80;67.60;;;;;;5003678;28;20030;-64
2020/12/31 10:33:10;;;;;;;5.82;3.10;;;6.80;68.10;;;;;;5018402;28;20112;-64
2020/12/31 10:35:35;;;;;;;4.90;3.42;;;6.80;68.00;;;;;;5018675;28;20408;-65
2020/12/31 10:38:01;;;;;;;4.72;3.58;;;6.80;67.80;;;;;;5018946;28;20033;-63
2020/12/31 10:40:27;;;;;;;8.07;3.28;;;6.80;68.10;;;;;;5018562;28;20555;-66
2020/12/31 10:42:53;;;;;;;4.93;3.40;;;6.90;67.90;;;;;;5019529;28;20029;-64
2020/12/31 10:45:18;;;;;;;4.30;3.22;;;7.00;67.40;;;;;;5018188;28;20485;-63
2020/12/31 10:47:44;;;;;;;4.78;3.33;;;7.10;66.80;;;;;;5018415;28;20069;-63
2020/12/31 10:50:10;;;;;;;5.35;3.40;;;7.10;66.30;;;;;;5018876;28;20040;-60
2020/12/31 10:52:35;;;;;;;5.03;3.10;;;7.00;67.10;;;;;;5019117;28;20040;-62
2020/12/31 10:55:01;;;;;;;4.68;3.42;;;7.10;67.00;;;;;;5017928;28;20033;-62
2020/12/31 10:57:27;;;;;;;5.20;3.38;;;7.00;66.80;;;;;;5019293;28;20037;-59
2020/12/31 10:59:52;;;;;;;3.45;2.95;;;7.00;67.60;;;;;;5019353;28;20497;-65
2020/12/31 11:02:18;;;;;;;5.70;3.83;;;7.10;66.40;;;;;;5018714;28;20076;-63
2020/12/31 11:04:44;;;;;;;4.93;3.45;;;7.10;67.50;;;;;;5001568;28;20033;-63
2020/12/31 11:07:10;;;;;;;4.60;3.50;;;7.00;66.80;;;;;;5018530;28;20029;-62
2020/12/31 11:09:36;;;;;;;4.63;3.13;;;6.80;68.00;;;;;;5018601;28;20030;-62
2020/12/31 11:12:02;;;;;;;4.15;3.72;;;6.70;68.70;;;;;;5018277;28;20041;-62
2020/12/31 11:14:28;;;;;;;6.60;3.38;;;6.70;68.00;;;;;;5012482;28;20116;-62
2020/12/31 11:16:53;;;;;;;5.95;3.75;;;6.60;68.50;;;;;;5018001;28;20033;-63
2020/12/31 11:19:20;;;;;;;9.18;4.88;;;6.60;69.10;;;;;;5018384;28;20041;-62
2020/12/31 11:21:48;;;;;;;4.63;3.38;;;6.60;69.80;;;;;;5018342;28;20048;-64
2020/12/31 11:24:14;;;;;;;3.83;3.33;;;6.60;68.90;;;;;;5018372;28;20064;-64
2020/12/31 11:26:39;;;;;;;5.22;3.58;;;6.60;69.10;;;;;;5018774;28;20116;-63
2020/12/31 11:29:05;;;;;;;5.22;3.08;;;6.60;68.70;;;;;;5017752;28;20096;-61
2020/12/31 11:31:31;;;;;;;5.30;3.65;;;6.60;68.80;;;;;;5022200;28;20041;-61
2020/12/31 11:34:00;;;;;;;4.28;3.38;;;6.60;68.50;;;;;;5022532;28;20044;-62
2020/12/31 11:36:26;;;;;;;4.75;3.28;;;6.70;68.90;;;;;;5022605;28;20049;-62
2020/12/31 11:38:52;;;;;;;6.40;4.05;;;6.70;68.90;;;;;;5021589;28;20038;-62
2020/12/31 11:41:18;;;;;;;4.80;3.45;;;6.60;68.80;;;;;;5022329;28;20095;-63
2020/12/31 11:43:44;;;;;;;4.57;2.92;;;6.60;69.10;;;;;;5022073;28;20029;-63
2020/12/31 11:46:10;;;;;;;5.50;3.80;;;6.60;69.30;;;;;;5019617;28;20040;-62
2020/12/31 11:48:36;;;;;;;6.72;3.88;;;6.60;68.80;;;;;;5021584;28;20029;-63
2020/12/31 11:51:04;;;;;;;5.75;3.88;;;6.60;68.60;;;;;;5021666;28;20820;-63
2020/12/31 11:53:29;;;;;;;4.55;3.42;;;6.60;68.30;;;;;;5016380;28;20424;-63
2020/12/31 11:55:59;;;;;;;4.40;3.70;;;6.60;69.30;;;;;;5020246;28;20033;-62
2020/12/31 11:58:25;;;;;;;4.05;3.13;;;6.50;69.30;;;;;;5021778;28;20041;-62
2020/12/31 12:00:51;;;;;;;5.57;3.92;;;6.50;69.50;;;;;;5020186;28;20091;-62
2020/12/31 12:03:17;;;;;;;7.60;4.18;;;6.60;68.60;;;;;;5020859;28;20029;-62
2020/12/31 12:05:43;;;;;;;4.13;3.60;;;6.70;68.40;;;;;;5004207;28;20025;-61
2020/12/31 12:08:09;;;;;;;4.82;3.80;;;6.70;68.90;;;;;;5021717;28;20115;-60
2020/12/31 12:10:35;;;;;;;5.65;3.85;;;6.70;69.10;;;;;;5021779;28;20048;-61
2020/12/31 12:13:00;;;;;;;4.82;3.63;;;6.70;68.00;;;;;;5021860;28;20051;-61
2020/12/31 12:15:26;;;;;;;6.05;3.75;;;6.80;67.50;;;;;;5021072;28;20034;-61
2020/12/31 12:17:52;;;;;;;5.13;3.58;;;6.80;67.10;;;;;;5020213;28;20043;-61
2020/12/31 12:20:18;;;;;;;5.93;3.90;;;6.80;67.30;;;;;;5021010;28;20041;-61
2020/12/31 12:22:44;;;;;;;4.28;3.42;;;6.80;67.80;;;;;;5020328;28;20033;-60
2020/12/31 12:25:11;;;;;;;5.45;3.80;;;6.70;67.70;;;;;;5021156;28;20037;-61
2020/12/31 12:27:37;;;;;;;5.50;3.97;;;6.80;66.90;;;;;;5021148;28;20046;-61
2020/12/31 12:30:07;;;;;;;4.88;3.70;;;6.80;67.30;;;;;;5023086;28;20033;-62
2020/12/31 12:32:34;;;;;;;5.32;3.78;;;6.70;67.30;;;;;;5021888;28;20451;-62
2020/12/31 12:34:59;;;;;;;5.72;4.25;;;6.70;67.10;;;;;;5021331;28;20033;-65
2020/12/31 12:37:25;;;;;;;6.07;3.67;;;6.80;67.00;;;;;;5021285;28;20405;-62
2020/12/31 12:39:51;;;;;;;8.23;3.90;;;6.70;67.10;;;;;;5020390;28;20128;-63
2020/12/31 12:42:16;;;;;;;5.88;3.78;;;6.70;67.90;;;;;;5021088;28;20033;-63
2020/12/31 12:44:42;;;;;;;5.45;3.88;;;6.80;67.00;;;;;;5021285;28;20041;-62
2020/12/31 12:47:08;;;;;;;4.85;3.50;;;6.80;67.20;;;;;;5021188;28;20736;-63
2020/12/31 12:49:33;;;;;;;6.13;4.22;;;6.80;67.70;;;;;;5021167;28;20033;-64
2020/12/31 12:52:02;;;;;;;5.65;3.90;;;7.00;66.50;;;;;;5020723;28;20076;-63
2020/12/31 12:54:28;;;;;;;3.63;2.80;;;6.90;66.20;;;;;;5015915;28;20046;-63
2020/12/31 12:56:54;;;;;;;5.68;3.55;;;7.00;65.90;;;;;;5020563;28;20031;-62
2020/12/31 12:59:20;;;;;;;5.03;3.70;;;7.00;66.50;;;;;;5019863;28;20041;-63
2020/12/31 13:01:46;;;;;;;4.80;3.50;;;7.00;65.80;;;;;;5020367;28;20040;-62